Princeton's Hourly Summary for Monday, July 9, 2018
Hour Temp
(f)
RH
(%)
Solar Rad.
(MJ/m2)
Rainfall
(in)
Wind
(mph)
7/9/2018 12:00 AM 78 72 0 0 0.26
7/9/2018 1:00 AM 78 76 0 0 0.93
7/9/2018 2:00 AM 77 78 0 0 0.49
7/9/2018 3:00 AM 76 81 0 0 0.09
7/9/2018 4:00 AM 76 83 0 0 0.24
7/9/2018 5:00 AM 76 84 0 0 0.42
7/9/2018 6:00 AM 75 86 0 0 0
7/9/2018 7:00 AM 74 99 0.02 0 0.03
7/9/2018 8:00 AM 74 95 0.17 0 0.25
7/9/2018 9:00 AM 77 83 0.53 0 0.71
7/9/2018 10:00 AM 81 62 1.74 0 0.84
7/9/2018 11:00 AM 84 56 1.8 0 1.72
7/9/2018 12:00 PM 82 62 0.72 0 2.68
7/9/2018 1:00 PM 79 67 1.15 0 1.67
7/9/2018 2:00 PM 87 45 3.54 0 2.62
7/9/2018 3:00 PM 85 55 3.36 0 3.33
7/9/2018 4:00 PM 85 50 1.76 0 2.26
7/9/2018 5:00 PM 84 59 0.58 0 1.63
7/9/2018 6:00 PM 85 58 0.86 0 1.42
7/9/2018 7:00 PM 86 57 0.9 0 2.79
7/9/2018 8:00 PM 82 60 0.47 0 7.33
7/9/2018 9:00 PM 79 71 0.07 0 4.14
7/9/2018 10:00 PM 78 75 0 0 1.82
7/9/2018 11:00 PM 77 82 0 0 0.31
Data Summary 79 70 17.67 0.00 1.58